createdAt,value
2022-09-22T00:00:58.784Z,2.83
2022-09-22T00:03:27.326Z,3.00
2022-09-22T00:06:03.711Z,3.30
2022-09-22T00:08:32.243Z,3.30
2022-09-22T00:11:00.650Z,3.23
2022-09-22T00:13:28.159Z,3.53
2022-09-22T00:15:55.693Z,4.00
2022-09-22T00:18:23.250Z,3.73
2022-09-22T00:20:51.099Z,4.30
2022-09-22T00:23:20.981Z,4.00
2022-09-22T00:25:48.756Z,3.77
2022-09-22T00:28:16.283Z,3.67
2022-09-22T00:30:43.857Z,4.00
2022-09-22T00:33:11.416Z,3.90
2022-09-22T00:35:38.926Z,3.43
2022-09-22T00:38:07.807Z,3.03
2022-09-22T00:40:37.197Z,3.70
2022-09-22T00:43:16.822Z,3.63
2022-09-22T00:45:44.715Z,3.30
2022-09-22T00:48:12.390Z,3.60
2022-09-22T00:50:40.246Z,3.60
2022-09-22T00:53:09.701Z,3.53
2022-09-22T00:55:42.215Z,3.73
2022-09-22T00:58:10.933Z,3.60
2022-09-22T01:00:38.524Z,3.70
2022-09-22T01:03:08.295Z,3.40
2022-09-22T01:05:37.063Z,3.60
2022-09-22T01:08:04.635Z,3.80
2022-09-22T01:10:32.184Z,3.43
2022-09-22T01:13:05.294Z,3.90
2022-09-22T01:15:38.076Z,3.97
2022-09-22T01:18:12.647Z,4.03
2022-09-22T01:21:02.287Z,4.03
2022-09-22T01:23:43.398Z,3.60
2022-09-22T01:26:25.742Z,4.00
2022-09-22T01:29:03.323Z,3.77
2022-09-22T01:31:34.968Z,3.70
2022-09-22T01:34:05.960Z,3.83
2022-09-22T01:36:37.099Z,3.70
2022-09-22T01:39:07.026Z,3.67
2022-09-22T01:41:44.431Z,5.00
2022-09-22T01:44:16.371Z,3.70
2022-09-22T01:46:48.022Z,3.00
2022-09-22T01:49:16.415Z,4.00
2022-09-22T01:51:45.891Z,3.50
2022-09-22T01:54:15.431Z,4.67
2022-09-22T01:56:43.738Z,5.00
2022-09-22T01:59:11.839Z,4.93
2022-09-22T02:01:40.762Z,5.20
2022-09-22T02:04:10.755Z,5.27
2022-09-22T02:06:39.834Z,5.00
2022-09-22T02:09:08.354Z,4.70
2022-09-22T02:11:36.440Z,5.00
2022-09-22T02:14:04.783Z,4.97
2022-09-22T02:16:32.927Z,4.97
2022-09-22T02:19:11.950Z,5.40
2022-09-22T02:21:42.891Z,4.83
2022-09-22T02:24:25.234Z,4.70
2022-09-22T02:26:52.850Z,5.93
2022-09-22T02:29:20.603Z,5.30
2022-09-22T02:31:48.545Z,5.20
2022-09-22T02:34:16.195Z,5.50
2022-09-22T02:36:51.655Z,5.30
2022-09-22T02:39:21.062Z,5.33
2022-09-22T02:41:58.995Z,6.10
2022-09-22T02:44:30.730Z,5.13
2022-09-22T02:47:01.345Z,5.37
2022-09-22T02:49:29.252Z,5.10
2022-09-22T02:51:59.745Z,5.13
2022-09-22T02:54:27.441Z,4.93
2022-09-22T02:56:55.252Z,4.87
2022-09-22T02:59:22.759Z,4.37
2022-09-22T03:01:50.364Z,4.47
2022-09-22T03:04:17.952Z,4.50
2022-09-22T03:06:45.455Z,4.97
2022-09-22T03:09:16.560Z,4.47
2022-09-22T03:11:44.094Z,5.27
2022-09-22T03:14:11.608Z,4.60
2022-09-22T03:16:39.148Z,4.93
2022-09-22T03:19:06.647Z,4.90
2022-09-22T03:21:34.176Z,5.47
2022-09-22T03:24:01.744Z,5.37
2022-09-22T03:26:30.635Z,5.03
2022-09-22T03:28:58.200Z,4.70
2022-09-22T03:31:25.748Z,4.47
2022-09-22T03:33:53.322Z,4.00
2022-09-22T03:36:20.931Z,4.00
2022-09-22T03:38:48.565Z,4.30
2022-09-22T03:41:16.094Z,3.93
2022-09-22T03:43:44.996Z,4.10
2022-09-22T03:46:13.825Z,4.40
2022-09-22T03:48:44.973Z,4.63
2022-09-22T03:51:12.931Z,4.90
2022-09-22T03:53:40.426Z,4.67
2022-09-22T03:56:08.507Z,4.80
2022-09-22T03:58:36.192Z,4.80
2022-09-22T04:01:05.927Z,5.63
2022-09-22T04:03:33.870Z,4.93
2022-09-22T04:06:01.624Z,5.10
2022-09-22T04:08:29.160Z,4.93
2022-09-22T04:10:57.495Z,5.07
2022-09-22T04:13:25.067Z,5.70
2022-09-22T04:15:52.575Z,5.47
2022-09-22T04:18:22.217Z,5.30
2022-09-22T04:20:49.742Z,6.40
2022-09-22T04:23:17.330Z,8.73
2022-09-22T04:25:45.006Z,15.33
2022-09-22T04:28:12.495Z,13.40
2022-09-22T04:30:40.041Z,10.53
2022-09-22T04:33:07.568Z,10.53
2022-09-22T04:35:36.463Z,10.20
2022-09-22T04:38:03.997Z,8.97
2022-09-22T04:40:31.848Z,8.67
2022-09-22T04:42:59.402Z,7.67
2022-09-22T04:45:26.998Z,7.97
2022-09-22T04:47:54.486Z,6.30
2022-09-22T04:50:22.858Z,6.73
2022-09-22T04:52:52.846Z,6.63
2022-09-22T04:55:20.939Z,6.60
2022-09-22T04:57:48.643Z,6.53
2022-09-22T05:00:16.651Z,6.30
2022-09-22T05:02:44.178Z,6.17
2022-09-22T05:05:12.152Z,7.00
2022-09-22T05:07:41.381Z,9.40
2022-09-22T05:10:11.375Z,7.77
2022-09-22T05:12:40.136Z,7.87
2022-09-22T05:15:08.582Z,6.87
2022-09-22T05:17:36.884Z,6.67
2022-09-22T05:20:05.068Z,6.00
2022-09-22T05:22:36.330Z,6.13
2022-09-22T05:25:07.323Z,6.30
2022-09-22T05:27:36.221Z,5.80
2022-09-22T05:30:03.862Z,7.77
2022-09-22T05:32:31.359Z,11.53
2022-09-22T05:34:58.893Z,7.57
2022-09-22T05:37:26.403Z,7.83
2022-09-22T05:39:53.911Z,6.30
2022-09-22T05:42:23.695Z,6.57
2022-09-22T05:44:52.554Z,10.53
2022-09-22T05:47:20.063Z,9.43
2022-09-22T05:49:47.586Z,9.60
2022-09-22T05:52:15.115Z,7.73
2022-09-22T05:54:42.740Z,8.80
2022-09-22T05:57:10.239Z,8.27
2022-09-22T05:59:37.756Z,6.67
2022-09-22T06:02:23.869Z,5.87
2022-09-22T06:04:53.739Z,5.87
2022-09-22T06:07:21.507Z,11.70
2022-09-22T06:09:49.088Z,7.60
2022-09-22T06:12:16.767Z,11.67
2022-09-22T06:14:44.278Z,6.60
2022-09-22T06:17:13.241Z,7.57
2022-09-22T06:19:41.185Z,7.60
2022-09-22T06:22:11.033Z,9.40
2022-09-22T06:24:38.579Z,6.63
2022-09-22T06:27:06.397Z,5.97
2022-09-22T06:29:33.916Z,6.87
2022-09-22T06:32:01.660Z,6.43
2022-09-22T06:34:30.579Z,5.67
2022-09-22T06:37:00.016Z,7.77
2022-09-22T06:39:27.740Z,6.43
2022-09-22T06:41:56.275Z,5.80
2022-09-22T06:44:23.775Z,6.03
2022-09-22T06:46:51.310Z,6.10
2022-09-22T06:49:19.155Z,5.63
2022-09-22T06:51:49.360Z,6.30
2022-09-22T06:54:16.917Z,5.97
2022-09-22T06:56:44.406Z,5.93
2022-09-22T06:59:13.383Z,5.97
2022-09-22T07:01:42.062Z,5.67
2022-09-22T07:04:09.675Z,8.20
2022-09-22T07:06:37.802Z,6.47
2022-09-22T07:09:07.303Z,6.27
2022-09-22T07:11:39.512Z,6.07
2022-09-22T07:14:08.317Z,6.23
2022-09-22T07:16:36.435Z,6.07
2022-09-22T07:19:04.679Z,6.23
2022-09-22T07:21:36.298Z,6.40
2022-09-22T07:24:04.316Z,5.97
2022-09-22T07:26:34.610Z,10.83
2022-09-22T07:29:02.864Z,7.07
2022-09-22T07:31:31.878Z,7.53
2022-09-22T07:34:00.428Z,7.80
2022-09-22T07:36:29.062Z,7.10
2022-09-22T07:38:57.629Z,6.50
2022-09-22T07:41:27.346Z,6.63
2022-09-22T07:43:57.095Z,6.17
2022-09-22T07:46:24.824Z,6.20
2022-09-22T07:48:52.389Z,6.60
2022-09-22T07:51:21.406Z,7.13
2022-09-22T07:53:49.775Z,6.37
2022-09-22T07:56:18.191Z,6.57
2022-09-22T07:58:49.939Z,7.57
2022-09-22T08:01:19.384Z,8.17
2022-09-22T08:03:47.168Z,7.97
2022-09-22T08:06:16.112Z,8.17
2022-09-22T08:08:44.593Z,7.10
2022-09-22T08:11:14.821Z,8.10
2022-09-22T08:13:44.255Z,6.60
2022-09-22T08:16:11.980Z,7.03
2022-09-22T08:18:40.939Z,7.47
2022-09-22T08:21:08.775Z,7.97
2022-09-22T08:23:37.366Z,7.47
2022-09-22T08:26:06.018Z,7.27
2022-09-22T08:28:33.547Z,7.50
2022-09-22T08:31:01.495Z,8.20
2022-09-22T08:33:30.856Z,6.80
2022-09-22T08:36:02.687Z,7.27
2022-09-22T08:38:30.839Z,6.53
2022-09-22T08:41:05.935Z,6.13
2022-09-22T08:43:33.968Z,6.27
2022-09-22T08:46:02.211Z,5.53
2022-09-22T08:48:47.607Z,5.60
2022-09-22T08:51:37.308Z,6.23
2022-09-22T08:54:05.190Z,6.03
2022-09-22T08:56:36.771Z,5.83
2022-09-22T08:59:08.639Z,5.50
2022-09-22T09:01:42.484Z,5.30
2022-09-22T09:04:23.369Z,5.77
2022-09-22T09:06:58.045Z,5.70
2022-09-22T09:09:31.816Z,5.20
2022-09-22T09:12:17.324Z,5.40
2022-09-22T09:14:59.764Z,5.03
2022-09-22T09:17:30.333Z,5.70
2022-09-22T09:20:00.938Z,5.37
2022-09-22T09:22:32.634Z,5.60
2022-09-22T09:27:52.748Z,5.50
2022-09-22T09:30:20.868Z,5.23
2022-09-22T09:32:49.973Z,5.60
2022-09-22T09:35:18.716Z,5.73
2022-09-22T09:37:48.949Z,5.97
2022-09-22T09:40:18.663Z,5.60
2022-09-22T09:42:47.243Z,5.83
2022-09-22T09:45:15.763Z,6.23
2022-09-22T09:47:59.095Z,6.30
2022-09-22T09:50:32.066Z,6.80
2022-09-22T09:53:01.928Z,7.27
2022-09-22T09:55:29.502Z,6.80
2022-09-22T09:58:04.585Z,6.93
2022-09-22T10:00:32.011Z,6.57
2022-09-22T10:03:07.669Z,8.00
2022-09-22T10:05:37.154Z,6.73
2022-09-22T10:08:15.137Z,6.53
2022-09-22T10:10:42.978Z,6.50
2022-09-22T10:13:21.018Z,6.60
2022-09-22T10:16:01.475Z,6.70
2022-09-22T10:18:32.852Z,6.50
2022-09-22T10:21:03.785Z,7.13
2022-09-22T10:23:32.882Z,6.80
2022-09-22T10:26:17.705Z,7.30
2022-09-22T10:28:47.850Z,7.20
2022-09-22T10:31:20.392Z,6.97
2022-09-22T10:33:55.730Z,7.20
2022-09-22T10:36:25.858Z,7.10
2022-09-22T10:38:58.923Z,7.00
2022-09-22T10:41:30.781Z,7.00
2022-09-22T10:44:03.101Z,7.33
2022-09-22T10:46:51.852Z,7.00
2022-09-22T10:49:24.780Z,7.10
2022-09-22T10:51:57.618Z,7.90
2022-09-22T10:54:34.096Z,11.23
2022-09-22T10:57:09.111Z,6.87
2022-09-22T10:59:44.147Z,7.00
2022-09-22T11:02:21.645Z,5.87
2022-09-22T11:04:55.152Z,6.47
2022-09-22T11:07:46.330Z,6.17
2022-09-22T11:10:49.331Z,5.90
2022-09-22T11:13:22.684Z,5.60
2022-09-22T11:16:00.181Z,6.37
2022-09-22T11:18:39.711Z,6.37
2022-09-22T11:21:12.205Z,6.40
2022-09-22T11:23:51.588Z,6.90
2022-09-22T11:26:28.970Z,7.10
2022-09-22T11:29:08.621Z,6.17
2022-09-22T11:31:42.306Z,6.23
2022-09-22T11:34:23.239Z,5.73
2022-09-22T11:36:54.360Z,6.47
2022-09-22T11:39:24.624Z,5.30
2022-09-22T11:42:01.774Z,4.70
2022-09-22T11:44:33.351Z,4.47
2022-09-22T11:47:15.754Z,5.53
2022-09-22T11:49:52.572Z,5.47
2022-09-22T11:52:26.259Z,5.10
2022-09-22T11:55:14.484Z,5.43
2022-09-22T11:57:45.695Z,5.20
2022-09-22T12:00:16.363Z,4.83
2022-09-22T12:02:47.390Z,5.00
2022-09-22T12:05:18.616Z,5.37
2022-09-22T12:07:47.642Z,4.57
2022-09-22T12:10:17.612Z,4.77
2022-09-22T12:12:48.611Z,4.93
2022-09-22T12:15:19.933Z,4.57
2022-09-22T12:17:50.593Z,5.40
2022-09-22T12:20:28.976Z,5.17
2022-09-22T12:23:05.302Z,5.00
2022-09-22T12:25:50.508Z,7.07
2022-09-22T12:28:21.212Z,4.53
2022-09-22T12:31:00.888Z,5.20
2022-09-22T12:33:29.368Z,4.97
2022-09-22T12:35:57.680Z,4.90
2022-09-22T12:38:25.711Z,5.83
2022-09-22T12:40:54.936Z,5.47
2022-09-22T12:43:24.445Z,5.50
2022-09-22T12:45:52.950Z,5.20
2022-09-22T12:48:23.373Z,4.80
2022-09-22T12:50:51.192Z,4.20
2022-09-22T12:53:26.067Z,5.03
2022-09-22T12:55:54.565Z,4.73
2022-09-22T12:58:42.988Z,4.90
2022-09-22T13:01:28.671Z,4.17
2022-09-22T13:04:05.373Z,4.10
2022-09-22T13:06:51.339Z,3.83
2022-09-22T13:09:20.384Z,4.23
2022-09-22T13:12:22.000Z,4.30
2022-09-22T13:14:59.572Z,4.33
2022-09-22T13:17:33.641Z,4.03
2022-09-22T13:20:02.124Z,4.07
2022-09-22T13:22:29.657Z,3.40
2022-09-22T13:24:57.172Z,2.77
2022-09-22T13:27:24.734Z,3.40
2022-09-22T13:29:59.759Z,3.60
2022-09-22T13:32:28.400Z,3.43
2022-09-22T13:34:55.931Z,2.90
2022-09-22T13:37:24.887Z,3.13
2022-09-22T13:39:53.660Z,3.20
2022-09-22T13:42:23.741Z,3.27
2022-09-22T13:44:58.738Z,2.90
2022-09-22T13:47:28.158Z,3.23
2022-09-22T13:49:57.532Z,3.00
2022-09-22T13:52:27.410Z,2.97
2022-09-22T13:54:56.228Z,2.83
2022-09-22T13:57:26.114Z,3.00
2022-09-22T13:59:53.779Z,3.10
2022-09-22T14:02:25.093Z,2.73
2022-09-22T14:04:58.162Z,2.53
2022-09-22T14:07:27.600Z,2.83
2022-09-22T14:09:55.828Z,2.70
2022-09-22T14:12:23.371Z,2.70
2022-09-22T14:14:50.928Z,2.50
2022-09-22T14:17:20.820Z,2.63
2022-09-22T14:19:53.993Z,2.50
2022-09-22T14:22:23.474Z,2.47
2022-09-22T14:24:52.753Z,2.40
2022-09-22T14:27:22.144Z,2.40
2022-09-22T14:29:50.720Z,2.53
2022-09-22T14:32:21.533Z,2.67
2022-09-22T14:34:50.538Z,2.30
2022-09-22T14:37:20.428Z,2.57
2022-09-22T14:39:57.684Z,2.30
2022-09-22T14:42:28.243Z,2.43
2022-09-22T14:45:07.592Z,2.17
2022-09-22T14:47:39.352Z,2.40
2022-09-22T14:50:09.051Z,2.17
2022-09-22T14:52:37.719Z,2.30
2022-09-22T14:55:12.075Z,1.98
2022-09-22T14:57:39.661Z,2.15
2022-09-22T15:00:25.316Z,2.22
2022-09-22T15:02:54.068Z,1.63
2022-09-22T15:05:29.645Z,3.28
2022-09-22T15:07:58.316Z,2.58
2022-09-22T15:10:28.328Z,2.17
2022-09-22T15:12:56.443Z,1.83
2022-09-22T15:15:26.056Z,1.85
2022-09-22T15:18:15.788Z,1.70
2022-09-22T15:20:46.533Z,1.73
2022-09-22T15:23:15.761Z,1.73
2022-09-22T15:25:44.940Z,2.00
2022-09-22T15:28:13.708Z,1.83
2022-09-22T15:30:42.361Z,1.60
2022-09-22T15:33:13.468Z,1.88
2022-09-22T15:35:41.644Z,2.03
2022-09-22T15:38:15.053Z,1.50
2022-09-22T15:40:42.760Z,1.70
2022-09-22T15:43:14.131Z,1.67
2022-09-22T15:45:48.499Z,2.03
2022-09-22T15:48:23.393Z,1.50
2022-09-22T15:50:51.100Z,1.77
2022-09-22T15:53:18.652Z,1.88
2022-09-22T15:55:47.849Z,1.88
2022-09-22T15:58:18.421Z,1.70
2022-09-22T16:00:47.542Z,1.67
2022-09-22T16:03:16.425Z,1.80
2022-09-22T16:05:44.800Z,1.73
2022-09-22T16:08:14.883Z,1.60
2022-09-22T16:10:44.158Z,1.90
2022-09-22T16:13:12.797Z,2.20
2022-09-22T16:15:41.734Z,1.67
2022-09-22T16:18:10.023Z,1.83
2022-09-22T16:20:38.198Z,1.70
2022-09-22T16:23:07.356Z,1.93
2022-09-22T16:25:34.920Z,2.10
2022-09-22T16:28:02.833Z,1.90
2022-09-22T16:30:30.392Z,1.97
2022-09-22T16:32:59.369Z,1.90
2022-09-22T16:35:26.901Z,1.93
2022-09-22T16:37:55.636Z,2.00
2022-09-22T16:40:24.292Z,1.90
2022-09-22T16:42:52.147Z,2.30
2022-09-22T16:45:40.016Z,2.37
2022-09-22T16:48:08.948Z,2.17
2022-09-22T16:50:37.606Z,2.10
2022-09-22T16:53:06.957Z,1.80
2022-09-22T16:55:37.309Z,1.90
2022-09-22T16:58:07.209Z,1.83
2022-09-22T17:00:34.904Z,2.10
2022-09-22T17:03:02.633Z,2.27
2022-09-22T17:05:32.664Z,2.40
2022-09-22T17:08:05.950Z,2.37
2022-09-22T17:10:35.734Z,2.40
2022-09-22T17:13:04.676Z,2.67
2022-09-22T17:15:36.034Z,2.70
2022-09-22T17:18:04.292Z,4.27
2022-09-22T17:20:33.189Z,3.77
2022-09-22T17:23:00.722Z,2.93
2022-09-22T17:25:28.974Z,2.50
2022-09-22T17:27:57.277Z,2.73
2022-09-22T17:30:24.914Z,2.60
2022-09-22T17:32:52.945Z,2.47
2022-09-22T17:35:20.528Z,2.60
2022-09-22T17:37:49.496Z,2.93
2022-09-22T17:40:17.174Z,3.07
2022-09-22T17:42:44.760Z,2.70
2022-09-22T17:45:12.293Z,3.30
2022-09-22T17:47:53.700Z,3.83
2022-09-22T17:50:38.582Z,2.87
2022-09-22T17:53:25.189Z,3.00
2022-09-22T17:55:53.413Z,3.33
2022-09-22T17:58:20.945Z,4.40
2022-09-22T18:00:48.525Z,3.70
2022-09-22T18:03:16.108Z,4.50
2022-09-22T18:05:43.796Z,3.77
2022-09-22T18:08:13.053Z,4.07
2022-09-22T18:10:40.600Z,4.57
2022-09-22T18:13:10.124Z,4.13
2022-09-22T18:15:37.728Z,4.40
2022-09-22T18:18:05.323Z,4.47
2022-09-22T18:20:34.365Z,4.33
2022-09-22T18:23:02.337Z,4.60
2022-09-22T18:25:33.815Z,3.87
2022-09-22T18:28:01.512Z,4.57
2022-09-22T18:30:29.260Z,5.07
2022-09-22T18:32:56.796Z,5.03
2022-09-22T18:35:27.827Z,4.37
2022-09-22T18:37:55.371Z,5.03
2022-09-22T18:40:22.959Z,4.87
2022-09-22T18:42:51.911Z,4.13
2022-09-22T18:45:19.477Z,4.20
2022-09-22T18:47:47.005Z,3.80
2022-09-22T18:50:14.581Z,3.73
2022-09-22T18:52:46.569Z,5.83
2022-09-22T18:55:17.210Z,6.87
2022-09-22T18:57:47.304Z,5.47
2022-09-22T19:00:17.172Z,5.10
2022-09-22T19:02:46.173Z,5.87
2022-09-22T19:05:14.060Z,5.97
2022-09-22T19:07:44.081Z,6.13
2022-09-22T19:10:12.874Z,5.50
2022-09-22T19:12:40.768Z,5.60
2022-09-22T19:15:16.385Z,5.50
2022-09-22T19:17:46.981Z,4.87
2022-09-22T19:20:15.681Z,4.77
2022-09-22T19:22:43.233Z,4.80
2022-09-22T19:25:11.105Z,4.30
2022-09-22T19:27:39.673Z,4.00
2022-09-22T19:30:08.078Z,4.00
2022-09-22T19:32:35.821Z,3.63
2022-09-22T19:35:05.073Z,4.20
2022-09-22T19:37:32.613Z,4.10
2022-09-22T19:40:00.181Z,4.37
2022-09-22T19:42:28.409Z,4.10
2022-09-22T19:44:55.952Z,6.13
2022-09-22T19:47:23.709Z,4.83
2022-09-22T19:49:51.301Z,4.50
2022-09-22T19:52:20.201Z,4.73
2022-09-22T19:54:48.309Z,4.80
2022-09-22T19:57:15.893Z,5.60
2022-09-22T19:59:44.017Z,6.00
2022-09-22T20:02:12.802Z,6.43
2022-09-22T20:04:40.735Z,7.37
2022-09-22T20:07:08.477Z,5.57
2022-09-22T20:09:37.732Z,5.60
2022-09-22T20:12:05.781Z,6.33
2022-09-22T20:14:34.381Z,5.47
2022-09-22T20:17:03.253Z,5.43
2022-09-22T20:19:32.289Z,8.53
2022-09-22T20:22:17.708Z,5.90
2022-09-22T20:24:53.980Z,4.90
2022-09-22T20:27:22.811Z,5.43
2022-09-22T20:29:52.996Z,4.40
2022-09-22T20:32:24.317Z,4.07
2022-09-22T20:34:52.016Z,4.57
2022-09-22T20:37:19.545Z,5.43
2022-09-22T20:39:48.824Z,4.70
2022-09-22T20:42:16.401Z,4.70
2022-09-22T20:44:43.971Z,4.70
2022-09-22T20:47:13.728Z,5.03
2022-09-22T20:49:42.299Z,4.80
2022-09-22T20:52:10.409Z,4.87
2022-09-22T20:54:37.925Z,5.20
2022-09-22T20:57:06.873Z,4.90
2022-09-22T20:59:34.433Z,4.47
2022-09-22T21:02:01.975Z,4.90
2022-09-22T21:04:30.360Z,5.60
2022-09-22T21:06:57.924Z,5.10
2022-09-22T21:09:42.925Z,5.17
2022-09-22T21:12:13.418Z,5.73
2022-09-22T21:14:42.081Z,5.87
2022-09-22T21:17:09.604Z,5.93
2022-09-22T21:19:37.157Z,6.60
2022-09-22T21:22:04.742Z,6.33
2022-09-22T21:24:32.453Z,6.30
2022-09-22T21:27:00.230Z,6.80
2022-09-22T21:29:29.677Z,6.13
2022-09-22T21:31:57.760Z,5.83
2022-09-22T21:34:25.344Z,6.83
2022-09-22T21:36:53.095Z,5.63
2022-09-22T21:39:21.355Z,5.93
2022-09-22T21:41:49.077Z,5.30
2022-09-22T21:44:16.636Z,5.63
2022-09-22T21:46:47.416Z,5.90
2022-09-22T21:49:15.260Z,5.63
2022-09-22T21:51:44.056Z,5.60
2022-09-22T21:54:13.175Z,5.70
2022-09-22T21:56:40.720Z,5.80
2022-09-22T21:59:08.404Z,6.57
2022-09-22T22:01:37.063Z,5.80
2022-09-22T22:04:07.866Z,6.47
2022-09-22T22:06:37.306Z,7.47
2022-09-22T22:09:06.359Z,6.60
2022-09-22T22:11:35.124Z,6.57
2022-09-22T22:14:03.340Z,6.90
2022-09-22T22:16:31.581Z,7.13
2022-09-22T22:18:59.153Z,6.90
2022-09-22T22:21:29.768Z,6.67
2022-09-22T22:24:18.757Z,6.97
2022-09-22T22:26:49.547Z,6.70
2022-09-22T22:29:17.101Z,7.50
2022-09-22T22:31:44.877Z,8.07
2022-09-22T22:34:13.469Z,7.80
2022-09-22T22:36:42.428Z,7.20
2022-09-22T22:39:10.034Z,6.83
2022-09-22T22:41:38.779Z,7.80
2022-09-22T22:44:07.062Z,7.77
2022-09-22T22:46:34.831Z,7.13
2022-09-22T22:49:02.642Z,7.07
2022-09-22T22:51:30.341Z,6.83
2022-09-22T22:53:59.233Z,7.27
2022-09-22T22:56:27.305Z,6.93
2022-09-22T22:58:55.793Z,7.30
2022-09-22T23:01:24.098Z,7.37
2022-09-22T23:03:52.295Z,6.83
2022-09-22T23:06:21.142Z,6.50
2022-09-22T23:08:48.820Z,6.63
2022-09-22T23:11:18.977Z,6.70
2022-09-22T23:13:50.867Z,6.20
2022-09-22T23:16:19.823Z,6.73
2022-09-22T23:18:47.633Z,6.20
2022-09-22T23:21:16.106Z,6.33
2022-09-22T23:23:43.924Z,6.10
2022-09-22T23:26:12.571Z,5.70
2022-09-22T23:28:41.682Z,5.27
2022-09-22T23:31:10.162Z,5.10
2022-09-22T23:33:38.515Z,5.30
2022-09-22T23:36:07.276Z,5.00
2022-09-22T23:38:35.782Z,4.90
2022-09-22T23:41:03.632Z,4.93
2022-09-22T23:43:32.150Z,4.50
2022-09-22T23:46:03.105Z,4.27
2022-09-22T23:48:30.852Z,4.23
2022-09-22T23:50:58.830Z,4.53
2022-09-22T23:53:28.702Z,4.70
2022-09-22T23:55:56.266Z,5.20
2022-09-22T23:58:23.809Z,4.87
